Time;durP1;ratioP1;P1;durP2;ratioP2;P2;SDS_P1;SDS_P2;PMS_P1;PMS_P2;Temp;Humidity;BMP_temperature;BMP_pressure;BME280_temperature;BME280_humidity;BME280_pressure;Samples;Min_cycle;Max_cycle;Signal;HPM_P1;HPM_P2
2023/01/26 00:02:58;;;;;;;28.15;9.88;;;4.80;99.90;;;;;;10271638;28;20120;-61
2023/01/26 00:07:59;;;;;;;25.40;9.75;;;5.80;99.90;;;;;;10278598;28;20030;-61
2023/01/26 00:12:59;;;;;;;22.55;9.10;;;4.80;99.90;;;;;;10269748;28;20023;-61
2023/01/26 00:18:01;;;;;;;29.80;10.90;;;4.80;99.90;;;;;;10273655;28;20029;-61
2023/01/26 00:23:02;;;;;;;27.35;10.82;;;4.80;99.90;;;;;;10267615;28;20521;-61
2023/01/26 00:28:03;;;;;;;26.27;9.35;;;4.80;99.90;;;;;;10276683;28;20089;-61
2023/01/26 00:33:03;;;;;;;24.83;9.85;;;4.80;99.90;;;;;;10269224;28;20030;-61
2023/01/26 00:38:11;;;;;;;23.67;8.43;;;4.80;99.90;;;;;;10274013;28;20026;-61
2023/01/26 00:43:14;;;;;;;24.80;8.93;;;4.80;99.90;;;;;;10268016;28;20130;-61
2023/01/26 00:48:15;;;;;;;24.33;9.75;;;4.80;99.90;;;;;;10272442;28;20490;-61
2023/01/26 00:53:16;;;;;;;26.10;9.60;;;4.80;99.90;;;;;;10271615;28;20110;-62
2023/01/26 00:58:16;;;;;;;26.63;9.85;;;4.80;99.90;;;;;;10278151;28;20528;-61
2023/01/26 01:03:17;;;;;;;26.85;8.40;;;4.80;99.90;;;;;;10275241;28;20043;-61
2023/01/26 01:08:18;;;;;;;22.60;8.55;;;4.80;99.90;;;;;;10272507;28;20029;-62
2023/01/26 01:13:18;;;;;;;27.55;10.02;;;4.80;99.90;;;;;;10266190;28;20031;-61
2023/01/26 01:18:19;;;;;;;25.92;8.80;;;4.80;99.90;;;;;;10272598;28;20061;-61
2023/01/26 01:23:19;;;;;;;24.40;9.80;;;4.80;99.90;;;;;;10271419;28;20126;-62
2023/01/26 01:28:20;;;;;;;26.67;9.55;;;4.80;99.90;;;;;;10274724;28;20023;-61
2023/01/26 01:33:22;;;;;;;25.08;8.82;;;4.80;99.90;;;;;;10272867;28;20022;-62
2023/01/26 01:38:23;;;;;;;23.50;9.07;;;4.80;99.90;;;;;;10272366;28;20019;-62
2023/01/26 01:43:25;;;;;;;24.08;9.00;;;4.80;99.90;;;;;;10268220;28;20039;-61
2023/01/26 01:48:45;;;;;;;26.27;9.05;;;4.80;99.90;;;;;;10269402;28;20024;-61
2023/01/26 01:53:49;;;;;;;20.58;8.45;;;4.80;99.90;;;;;;10267509;28;20050;-61
2023/01/26 01:58:53;;;;;;;22.35;8.07;;;4.80;99.90;;;;;;10268968;28;20093;-61
2023/01/26 02:04:00;;;;;;;22.77;8.35;;;4.80;99.90;;;;;;10264178;28;20038;-61
2023/01/26 02:09:02;;;;;;;21.02;8.50;;;4.80;99.90;;;;;;10268952;28;20439;-61
2023/01/26 02:14:07;;;;;;;23.60;9.23;;;4.80;99.90;;;;;;10271898;28;20063;-61
2023/01/26 02:19:31;;;;;;;21.70;8.45;;;4.80;99.90;;;;;;10266454;28;20050;-61
2023/01/26 02:24:35;;;;;;;20.45;7.22;;;4.80;99.90;;;;;;10270574;28;20488;-61
2023/01/26 02:29:36;;;;;;;22.38;8.60;;;4.80;99.90;;;;;;10265781;28;20529;-61
2023/01/26 02:34:37;;;;;;;23.83;8.35;;;4.80;99.90;;;;;;10265346;28;20097;-61
2023/01/26 02:39:55;;;;;;;25.27;10.00;;;4.80;99.90;;;;;;10272094;28;20215;-62
2023/01/26 02:44:56;;;;;;;20.75;7.50;;;4.80;99.90;;;;;;10277824;28;20023;-62
2023/01/26 02:49:57;;;;;;;24.02;8.05;;;4.80;99.90;;;;;;10276516;28;20055;-61
2023/01/26 03:00:23;;;;;;;20.98;7.55;;;4.80;99.90;;;;;;10274126;28;20156;-61
2023/01/26 03:05:24;;;;;;;17.33;6.95;;;4.80;99.90;;;;;;10274167;28;20035;-61
2023/01/26 03:10:25;;;;;;;23.08;8.23;;;4.80;99.90;;;;;;10277329;28;20025;-61
2023/01/26 03:31:37;;;;;;;17.67;6.68;;;4.90;99.90;;;;;;10272565;28;20069;-61
2023/01/26 03:36:37;;;;;;;21.48;7.43;;;4.90;99.90;;;;;;10273083;28;20549;-61
2023/01/26 03:57:38;;;;;;;18.55;7.35;;;4.80;99.90;;;;;;10264036;28;20035;-62
2023/01/26 04:08:22;;;;;;;;;;;4.80;99.90;;;;;;10270181;28;20096;-61
2023/01/26 04:24:12;;;;;;;18.05;7.00;;;4.90;99.90;;;;;;10273926;28;20031;-61
2023/01/26 04:29:14;;;;;;;18.42;7.13;;;4.80;99.90;;;;;;10264968;28;20616;-62
2023/01/26 04:34:15;;;;;;;17.63;6.97;;;4.90;99.90;;;;;;10266301;28;20035;-61
2023/01/26 04:39:16;;;;;;;20.00;7.30;;;4.80;99.90;;;;;;10276246;28;20023;-61
2023/01/26 04:44:16;;;;;;;17.48;6.75;;;4.90;99.90;;;;;;10268983;28;20064;-61
2023/01/26 04:49:17;;;;;;;19.00;7.13;;;4.90;99.90;;;;;;10269505;28;20179;-61
2023/01/26 04:54:18;;;;;;;16.17;6.32;;;4.90;99.90;;;;;;10271618;28;20038;-61
2023/01/26 04:59:18;;;;;;;18.85;6.78;;;4.90;99.90;;;;;;10273433;28;20011;-62
2023/01/26 05:04:19;;;;;;;18.65;6.63;;;4.90;99.90;;;;;;10266739;28;20066;-61
2023/01/26 05:09:19;;;;;;;16.17;6.07;;;4.90;99.90;;;;;;10269252;28;20349;-62
2023/01/26 05:14:20;;;;;;;17.20;6.45;;;4.90;99.90;;;;;;10265720;28;20431;-62
2023/01/26 05:19:20;;;;;;;16.42;6.18;;;4.90;99.90;;;;;;10267511;28;20027;-62
2023/01/26 05:24:21;;;;;;;16.42;6.03;;;4.90;99.90;;;;;;10270373;28;20039;-61
2023/01/26 05:29:22;;;;;;;18.40;6.75;;;4.90;99.90;;;;;;10265247;28;20019;-61
2023/01/26 05:34:22;;;;;;;14.95;6.18;;;4.90;99.90;;;;;;10271379;28;20030;-61
2023/01/26 05:39:23;;;;;;;13.48;6.07;;;4.90;99.90;;;;;;10271435;28;20879;-61
2023/01/26 05:44:24;;;;;;;15.05;6.05;;;4.90;99.90;;;;;;10271616;28;20439;-62
2023/01/26 05:49:24;;;;;;;16.88;5.97;;;4.90;99.90;;;;;;10269432;28;20019;-62
2023/01/26 05:54:25;;;;;;;17.02;6.32;;;4.90;99.90;;;;;;10262373;28;20023;-62
2023/01/26 05:59:25;;;;;;;16.23;6.13;;;4.90;99.90;;;;;;10268812;28;20015;-62
2023/01/26 06:04:26;;;;;;;14.27;5.72;;;4.90;99.90;;;;;;10257441;28;20042;-61
2023/01/26 06:09:27;;;;;;;15.77;6.10;;;4.90;99.90;;;;;;10263302;28;20027;-61
2023/01/26 06:14:28;;;;;;;17.45;6.85;;;5.00;99.90;;;;;;10262048;28;20039;-61
2023/01/26 06:19:28;;;;;;;15.02;5.93;;;4.90;99.90;;;;;;10265272;28;20020;-62
2023/01/26 06:24:29;;;;;;;14.05;6.07;;;4.90;99.90;;;;;;10268083;28;20047;-61
2023/01/26 06:29:30;;;;;;;16.65;5.95;;;4.90;99.90;;;;;;10261451;28;20104;-62
2023/01/26 06:34:32;;;;;;;14.32;6.30;;;4.90;99.90;;;;;;10262549;28;20281;-62
2023/01/26 06:39:33;;;;;;;18.38;6.82;;;5.00;99.90;;;;;;10267271;28;20019;-62
2023/01/26 06:44:38;;;;;;;16.08;6.25;;;4.90;99.90;;;;;;10263745;28;20339;-62
2023/01/26 06:49:38;;;;;;;16.17;6.85;;;5.00;99.90;;;;;;10268143;28;20023;-61
2023/01/26 06:54:39;;;;;;;16.67;7.15;;;5.00;99.90;;;;;;10268659;28;20074;-61
2023/01/26 06:59:39;;;;;;;15.88;6.45;;;4.90;99.90;;;;;;10256542;28;20033;-61
2023/01/26 07:04:40;;;;;;;15.63;6.00;;;5.00;99.90;;;;;;10251861;28;20038;-62
2023/01/26 07:09:41;;;;;;;15.07;6.13;;;5.00;99.90;;;;;;10261986;28;20015;-61
2023/01/26 07:14:41;;;;;;;18.23;6.13;;;5.00;99.90;;;;;;10261156;28;20110;-61
2023/01/26 07:19:42;;;;;;;18.20;6.32;;;5.00;99.90;;;;;;10263518;28;20107;-61
2023/01/26 07:24:42;;;;;;;16.88;6.80;;;5.00;99.90;;;;;;10266239;28;20034;-61
2023/01/26 07:29:45;;;;;;;17.35;6.20;;;5.00;99.90;;;;;;10266222;28;20114;-61
2023/01/26 07:34:46;;;;;;;18.67;6.55;;;5.00;99.90;;;;;;10273431;28;20061;-62
2023/01/26 07:39:47;;;;;;;17.35;7.00;;;5.00;99.90;;;;;;10262774;28;20475;-60
2023/01/26 07:44:48;;;;;;;15.43;5.85;;;5.00;99.90;;;;;;10268269;28;20510;-61
2023/01/26 07:49:49;;;;;;;15.15;6.05;;;5.00;99.90;;;;;;10268003;28;20009;-61
2023/01/26 07:54:50;;;;;;;12.85;6.22;;;5.00;99.90;;;;;;10270858;28;20030;-60
2023/01/26 07:59:51;;;;;;;13.68;6.00;;;5.00;99.90;;;;;;10276061;28;20037;-62
2023/01/26 08:04:52;;;;;;;19.35;6.45;;;5.00;99.90;;;;;;10281277;28;20046;-61
2023/01/26 08:09:53;;;;;;;16.30;6.47;;;5.00;99.90;;;;;;10270869;28;20077;-61
2023/01/26 08:14:53;;;;;;;15.77;6.80;;;5.10;99.90;;;;;;10269936;28;20039;-62
2023/01/26 08:19:54;;;;;;;15.90;6.90;;;5.10;99.90;;;;;;10270990;28;20546;-62
2023/01/26 08:24:54;;;;;;;17.40;5.85;;;5.00;99.90;;;;;;10266468;28;20503;-62
2023/01/26 08:29:55;;;;;;;18.10;6.55;;;5.00;99.90;;;;;;10263829;28;20565;-61
2023/01/26 08:34:56;;;;;;;17.00;6.88;;;5.00;99.90;;;;;;10272853;28;20062;-61
2023/01/26 08:39:57;;;;;;;16.48;6.53;;;5.10;99.90;;;;;;10267891;28;20073;-62
2023/01/26 08:44:57;;;;;;;15.52;5.72;;;5.90;99.90;;;;;;10266976;28;20096;-62
2023/01/26 08:50:01;;;;;;;16.83;6.25;;;5.10;99.90;;;;;;10264864;28;20050;-70
2023/01/26 08:55:03;;;;;;;19.73;6.82;;;5.10;99.90;;;;;;10275038;28;20073;-62
2023/01/26 09:00:04;;;;;;;22.83;6.90;;;5.20;99.90;;;;;;10273774;28;20070;-62
2023/01/26 09:05:11;;;;;;;18.27;7.22;;;5.20;99.90;;;;;;10268549;28;20050;-66
2023/01/26 09:10:11;;;;;;;17.67;6.18;;;5.30;99.90;;;;;;10272251;28;20029;-64
2023/01/26 09:15:12;;;;;;;16.33;5.82;;;5.40;99.90;;;;;;10272429;28;20037;-65
2023/01/26 09:20:13;;;;;;;17.25;5.88;;;5.40;99.90;;;;;;10271348;28;20117;-64
2023/01/26 09:25:17;;;;;;;16.63;6.50;;;5.30;99.90;;;;;;10269358;28;20039;-64
2023/01/26 09:30:18;;;;;;;16.90;5.65;;;5.30;99.90;;;;;;10266280;28;20034;-62
2023/01/26 09:35:19;;;;;;;17.92;5.85;;;5.40;99.90;;;;;;10275274;28;21011;-62
2023/01/26 09:40:30;;;;;;;18.55;5.47;;;5.50;99.90;;;;;;10274167;28;20022;-62
2023/01/26 09:45:53;;;;;;;18.35;5.82;;;5.50;99.90;;;;;;10265934;28;20031;-62
2023/01/26 09:51:09;;;;;;;16.45;5.90;;;5.60;99.90;;;;;;10262887;28;20022;-62
2023/01/26 09:56:19;;;;;;;16.65;5.63;;;5.70;99.90;;;;;;10267268;28;20431;-62
2023/01/26 10:01:37;;;;;;;12.57;4.22;;;5.70;99.90;;;;;;10269443;28;20582;-62
2023/01/26 10:06:38;;;;;;;16.17;5.38;;;6.90;99.90;;;;;;10265538;28;20035;-63
2023/01/26 10:11:47;;;;;;;17.20;5.05;;;5.80;99.90;;;;;;10267778;28;20461;-63
2023/01/26 10:16:50;;;;;;;14.45;4.43;;;5.90;99.90;;;;;;10270877;28;20038;-62
2023/01/26 10:21:52;;;;;;;14.88;5.13;;;6.00;99.90;;;;;;10266411;28;20023;-62
2023/01/26 10:26:57;;;;;;;14.25;4.97;;;6.10;99.90;;;;;;10266343;28;20443;-62
2023/01/26 10:31:57;;;;;;;12.30;4.38;;;6.30;99.90;;;;;;10274515;28;20015;-62
2023/01/26 10:37:20;;;;;;;12.13;3.70;;;6.50;99.90;;;;;;10269297;28;20023;-67
2023/01/26 10:42:21;;;;;;;15.65;3.72;;;6.40;99.90;;;;;;10281388;28;20475;-62
2023/01/26 10:47:21;;;;;;;16.88;3.45;;;6.30;99.90;;;;;;10269213;28;20030;-63
2023/01/26 10:52:26;;;;;;;11.95;2.70;;;7.10;99.90;;;;;;10264433;28;20382;-62
2023/01/26 10:57:31;;;;;;;11.93;2.65;;;6.40;99.90;;;;;;10274189;28;20026;-62
2023/01/26 11:02:35;;;;;;;7.93;2.80;;;6.50;99.90;;;;;;10277062;28;20019;-62
2023/01/26 11:07:44;;;;;;;7.90;3.15;;;6.80;99.90;;;;;;10271245;28;20058;-62
2023/01/26 11:12:47;;;;;;;13.18;2.47;;;6.80;99.90;;;;;;10267563;28;20410;-69
2023/01/26 11:18:12;;;;;;;11.13;2.30;;;6.80;99.90;;;;;;10275450;28;20037;-60
2023/01/26 11:23:23;;;;;;;11.32;2.20;;;7.00;99.90;;;;;;10267045;28;20057;-65
2023/01/26 11:28:52;;;;;;;7.40;2.08;;;7.00;99.90;;;;;;10272509;28;20034;-60
2023/01/26 11:33:58;;;;;;;11.65;3.03;;;7.00;99.90;;;;;;10267965;28;20467;-63
2023/01/26 11:39:16;;;;;;;11.40;2.58;;;7.10;99.90;;;;;;10275705;28;20031;-63
2023/01/26 11:44:46;;;;;;;10.48;1.73;;;7.20;99.90;;;;;;10274331;28;20565;-62
2023/01/26 11:50:04;;;;;;;;;;;7.30;99.90;;;;;;10280458;28;20553;-63
2023/01/26 11:55:14;;;;;;;9.98;1.80;;;7.30;99.90;;;;;;10276004;28;19937;-64
2023/01/26 12:00:17;;;;;;;10.18;1.80;;;7.60;99.90;;;;;;10267418;28;20470;-64
2023/01/26 12:05:28;;;;;;;13.32;2.05;;;7.40;99.90;;;;;;10267462;28;20047;-64
2023/01/26 12:10:38;;;;;;;6.35;2.00;;;7.30;99.90;;;;;;10264661;28;20348;-63
2023/01/26 12:15:47;;;;;;;10.95;1.58;;;7.20;99.90;;;;;;10261786;28;20034;-64
2023/01/26 12:20:59;;;;;;;15.70;2.25;;;7.30;99.90;;;;;;10259851;28;20023;-64
2023/01/26 12:26:12;;;;;;;11.13;2.05;;;7.30;99.90;;;;;;10247881;28;20039;-61
2023/01/26 12:31:25;;;;;;;5.20;1.33;;;8.00;99.90;;;;;;10267162;28;20018;-63
2023/01/26 12:37:03;;;;;;;8.13;1.50;;;7.40;99.90;;;;;;10268740;28;20022;-61
2023/01/26 12:42:13;;;;;;;5.68;1.63;;;7.40;99.90;;;;;;10261855;28;20082;-64
2023/01/26 12:47:32;;;;;;;9.27;1.50;;;7.40;99.90;;;;;;10256790;28;20086;-63
2023/01/26 12:52:54;;;;;;;4.47;1.10;;;7.40;99.90;;;;;;10263438;28;20041;-62
2023/01/26 12:58:30;;;;;;;8.40;1.90;;;7.40;99.90;;;;;;10266992;28;20399;-63
2023/01/26 13:04:07;;;;;;;5.32;1.67;;;7.40;99.90;;;;;;10260933;28;20035;-64
2023/01/26 13:09:22;;;;;;;7.18;1.50;;;7.40;99.90;;;;;;10200663;28;20093;-63
2023/01/26 13:14:35;;;;;;;3.22;1.10;;;7.40;99.90;;;;;;10266528;28;20023;-64
2023/01/26 13:19:52;;;;;;;8.18;1.08;;;7.40;99.90;;;;;;10270738;28;20043;-63
2023/01/26 13:25:22;;;;;;;5.50;1.30;;;7.40;99.90;;;;;;10265948;28;20491;-64
2023/01/26 13:30:25;;;;;;;4.10;1.15;;;7.40;99.90;;;;;;10262188;28;20066;-63
2023/01/26 13:35:30;;;;;;;4.20;1.00;;;7.40;99.90;;;;;;10272818;28;20027;-63
2023/01/26 13:40:42;;;;;;;6.07;1.60;;;7.40;99.90;;;;;;10260294;28;20054;-63
2023/01/26 13:46:13;;;;;;;4.28;1.17;;;8.00;99.90;;;;;;10277232;28;20399;-63
2023/01/26 13:51:32;;;;;;;7.57;1.35;;;7.40;99.90;;;;;;10268971;28;20027;-63
2023/01/26 13:56:34;;;;;;;4.15;0.70;;;8.10;99.90;;;;;;10282510;28;20416;-63
2023/01/26 14:01:55;;;;;;;4.75;1.05;;;7.40;99.90;;;;;;10267727;28;20675;-62
2023/01/26 14:07:14;;;;;;;2.22;0.80;;;7.40;99.90;;;;;;10262735;28;20575;-63
2023/01/26 14:12:32;;;;;;;6.20;1.20;;;7.40;99.90;;;;;;10335457;23;20484;-61
2023/01/26 14:17:48;;;;;;;1.80;0.60;;;7.50;99.90;;;;;;10311215;28;20307;-62
2023/01/26 14:23:12;;;;;;;5.50;1.30;;;7.40;99.90;;;;;;10299470;28;20023;-62
2023/01/26 14:28:20;;;;;;;3.03;0.80;;;7.40;99.90;;;;;;10308674;28;20085;-62
2023/01/26 14:33:24;;;;;;;4.77;1.33;;;7.40;99.90;;;;;;10319564;28;20036;-62
2023/01/26 14:38:27;;;;;;;3.78;1.08;;;7.40;99.90;;;;;;10314221;28;20027;-62
2023/01/26 14:43:28;;;;;;;3.22;0.70;;;7.50;99.90;;;;;;10305376;28;20038;-63
2023/01/26 14:48:33;;;;;;;3.70;0.65;;;7.40;99.90;;;;;;10308191;28;20034;-62
2023/01/26 14:53:40;;;;;;;4.05;0.80;;;7.40;99.90;;;;;;10315864;28;20158;-62
2023/01/26 14:58:41;;;;;;;3.08;0.60;;;7.40;99.90;;;;;;10308826;28;20113;-62
2023/01/26 15:03:42;;;;;;;2.50;0.63;;;8.30;99.90;;;;;;10299613;28;20335;-62
2023/01/26 15:08:59;;;;;;;2.90;0.57;;;7.40;99.90;;;;;;10309545;28;20022;-62
2023/01/26 15:13:59;;;;;;;4.97;0.77;;;7.40;99.90;;;;;;10317417;28;20031;-61
2023/01/26 15:19:05;;;;;;;1.70;0.90;;;7.40;99.90;;;;;;10317040;28;20531;-61
2023/01/26 15:24:12;;;;;;;2.15;0.70;;;7.80;99.90;;;;;;10305510;28;20065;-61
2023/01/26 15:29:33;;;;;;;3.78;0.80;;;7.40;99.90;;;;;;10321869;28;20117;-65
2023/01/26 15:34:37;;;;;;;3.83;1.13;;;7.50;99.90;;;;;;10322509;28;20022;-61
2023/01/26 15:39:38;;;;;;;6.57;0.90;;;7.50;99.90;;;;;;10306770;28;20057;-61
2023/01/26 15:44:39;;;;;;;2.75;0.75;;;8.70;99.90;;;;;;10280679;28;20054;-63
2023/01/26 15:49:51;;;;;;;2.40;0.73;;;7.40;99.90;;;;;;10302949;28;20487;-62
2023/01/26 15:54:52;;;;;;;2.65;0.77;;;7.50;99.90;;;;;;10301692;28;20026;-61
2023/01/26 15:59:53;;;;;;;2.30;0.68;;;7.40;99.90;;;;;;10302656;28;20031;-62
2023/01/26 16:04:54;;;;;;;1.45;0.60;;;7.40;99.90;;;;;;10303753;28;20043;-62
2023/01/26 16:09:57;;;;;;;4.32;0.60;;;7.60;99.90;;;;;;10307222;28;20023;-62
2023/01/26 16:15:02;;;;;;;5.15;0.70;;;7.40;99.90;;;;;;10296282;28;20053;-62
2023/01/26 16:20:03;;;;;;;6.38;0.70;;;7.40;99.90;;;;;;10303225;28;20031;-62
2023/01/26 16:25:26;;;;;;;2.05;0.77;;;7.40;99.90;;;;;;10301017;28;20258;-62
2023/01/26 16:30:26;;;;;;;4.10;0.70;;;7.70;99.90;;;;;;10301877;28;20181;-61
2023/01/26 16:35:36;;;;;;;5.63;0.90;;;7.30;99.90;;;;;;10317822;28;20027;-67
2023/01/26 16:40:49;;;;;;;2.53;0.52;;;8.30;99.90;;;;;;10324109;28;20026;-67
2023/01/26 16:45:50;;;;;;;4.57;0.90;;;7.60;99.90;;;;;;10312342;28;20069;-60
2023/01/26 16:50:52;;;;;;;2.42;0.75;;;7.50;99.90;;;;;;10315152;28;20020;-60
2023/01/26 16:55:54;;;;;;;9.50;1.45;;;7.40;99.90;;;;;;10320041;28;20045;-62
2023/01/26 17:00:55;;;;;;;7.05;0.88;;;7.50;99.90;;;;;;10307764;28;20026;-62
2023/01/26 17:06:04;;;;;;;9.93;1.30;;;7.40;99.90;;;;;;10318730;28;20617;-63
2023/01/26 17:11:05;;;;;;;4.90;1.02;;;7.50;99.90;;;;;;10309400;28;20026;-64
2023/01/26 17:16:12;;;;;;;3.28;1.45;;;8.50;99.90;;;;;;10316261;28;20018;-62
2023/01/26 17:21:15;;;;;;;5.88;1.48;;;7.50;99.90;;;;;;10313996;28;20424;-63
2023/01/26 17:26:16;;;;;;;5.97;1.10;;;7.40;99.90;;;;;;10314668;28;20089;-64
2023/01/26 17:31:19;;;;;;;4.85;1.13;;;7.30;99.90;;;;;;10317859;28;20057;-63
2023/01/26 17:36:19;;;;;;;4.80;1.58;;;7.30;99.90;;;;;;10310542;28;20030;-63
2023/01/26 17:41:26;;;;;;;4.97;1.00;;;7.30;99.90;;;;;;10313440;28;20411;-62
2023/01/26 17:46:27;;;;;;;8.43;1.40;;;7.30;99.90;;;;;;10309984;28;20117;-62
2023/01/26 17:51:28;;;;;;;6.20;1.10;;;7.30;99.90;;;;;;10313577;28;20018;-62
2023/01/26 17:56:29;;;;;;;8.38;2.58;;;7.30;99.90;;;;;;10317568;28;20042;-63
2023/01/26 18:01:30;;;;;;;5.07;1.40;;;7.30;99.90;;;;;;10306807;28;20022;-62
2023/01/26 18:06:31;;;;;;;5.68;0.95;;;8.50;99.90;;;;;;10313806;28;20033;-62
2023/01/26 18:11:32;;;;;;;2.72;0.88;;;7.20;99.90;;;;;;10309671;28;20096;-63
2023/01/26 18:16:33;;;;;;;5.97;1.30;;;7.20;99.90;;;;;;10313214;28;20607;-62
2023/01/26 18:21:34;;;;;;;6.22;1.48;;;7.20;99.90;;;;;;10295645;28;20019;-63
2023/01/26 18:26:38;;;;;;;3.53;1.10;;;7.30;99.90;;;;;;10315057;28;20035;-64
2023/01/26 18:31:39;;;;;;;7.55;1.27;;;7.30;99.90;;;;;;10303036;28;20030;-63
2023/01/26 18:36:40;;;;;;;3.20;1.15;;;7.30;99.90;;;;;;10301848;28;20295;-63
2023/01/26 18:41:46;;;;;;;7.72;1.00;;;7.30;99.90;;;;;;10300254;28;20185;-63
2023/01/26 18:46:52;;;;;;;6.00;1.30;;;7.20;99.90;;;;;;10304386;28;20031;-64
2023/01/26 18:51:53;;;;;;;6.18;1.48;;;8.30;99.90;;;;;;10309118;28;20455;-64
2023/01/26 18:56:55;;;;;;;3.38;1.20;;;7.20;99.90;;;;;;10306704;28;20110;-63
2023/01/26 19:01:56;;;;;;;6.07;1.27;;;7.20;99.90;;;;;;10303363;28;20022;-63
2023/01/26 19:06:56;;;;;;;4.93;1.17;;;7.20;99.90;;;;;;10317455;28;20423;-63
2023/01/26 19:11:58;;;;;;;3.13;0.80;;;7.20;99.90;;;;;;10314622;28;20383;-63
2023/01/26 19:16:58;;;;;;;3.95;1.35;;;7.20;99.90;;;;;;10316649;28;20462;-63
2023/01/26 19:21:59;;;;;;;4.30;1.00;;;7.20;99.90;;;;;;10309089;28;20034;-63
2023/01/26 19:27:00;;;;;;;4.78;1.20;;;7.10;99.90;;;;;;10322131;28;20188;-63
2023/01/26 19:32:00;;;;;;;2.40;1.08;;;7.10;99.90;;;;;;10324559;28;20014;-63
2023/01/26 19:37:01;;;;;;;3.13;0.95;;;7.10;99.90;;;;;;10318213;28;20424;-63
2023/01/26 19:42:02;;;;;;;3.13;0.95;;;7.00;99.90;;;;;;10308926;28;20515;-63
2023/01/26 19:47:03;;;;;;;4.35;1.08;;;7.00;99.90;;;;;;10300059;28;20054;-63
2023/01/26 19:52:03;;;;;;;4.00;0.85;;;7.30;99.90;;;;;;10307850;28;20029;-63
2023/01/26 19:57:04;;;;;;;3.72;1.10;;;7.00;99.90;;;;;;10319071;28;20415;-64
2023/01/26 20:02:05;;;;;;;3.22;0.98;;;7.00;99.90;;;;;;10321862;28;20018;-63
2023/01/26 20:07:06;;;;;;;7.53;1.65;;;7.00;99.90;;;;;;10320922;28;20129;-63
2023/01/26 20:12:09;;;;;;;3.75;0.88;;;7.00;99.90;;;;;;10321996;28;20022;-63
2023/01/26 20:17:10;;;;;;;4.72;1.00;;;6.90;99.90;;;;;;10317666;28;20034;-64
2023/01/26 20:22:11;;;;;;;6.47;1.10;;;7.00;99.90;;;;;;10318097;28;20427;-63
2023/01/26 20:27:12;;;;;;;3.42;1.13;;;6.90;99.90;;;;;;10319729;28;20038;-63
2023/01/26 20:32:13;;;;;;;3.92;1.17;;;6.90;99.90;;;;;;10316121;28;20477;-63
2023/01/26 20:37:14;;;;;;;2.15;1.05;;;6.90;99.90;;;;;;10304305;28;20030;-63
2023/01/26 20:42:17;;;;;;;1.67;0.77;;;6.90;99.90;;;;;;10302404;28;20030;-63
2023/01/26 20:47:17;;;;;;;4.57;1.00;;;6.90;99.90;;;;;;10317263;28;20439;-63
2023/01/26 20:52:18;;;;;;;3.53;1.20;;;6.90;99.90;;;;;;10314405;28;20034;-63
2023/01/26 20:57:19;;;;;;;2.28;0.93;;;6.90;99.90;;;;;;10313648;28;20533;-63
2023/01/26 21:02:20;;;;;;;2.70;1.20;;;6.80;99.90;;;;;;10317729;28;20076;-63
2023/01/26 21:07:20;;;;;;;3.03;1.20;;;6.80;99.90;;;;;;10316620;28;20392;-63
2023/01/26 21:12:21;;;;;;;2.75;1.00;;;7.10;99.90;;;;;;10317323;28;20038;-63
2023/01/26 21:17:23;;;;;;;3.22;1.05;;;6.80;99.90;;;;;;10317885;28;20023;-63
2023/01/26 21:22:23;;;;;;;4.45;1.50;;;6.80;99.90;;;;;;10320245;28;20026;-63
2023/01/26 21:27:24;;;;;;;4.82;1.25;;;7.00;99.90;;;;;;10309438;28;20038;-63
2023/01/26 21:32:24;;;;;;;3.15;1.00;;;6.80;99.90;;;;;;10308816;28;20030;-64
2023/01/26 21:37:25;;;;;;;6.13;1.23;;;6.80;99.90;;;;;;10303869;28;20023;-63
2023/01/26 21:42:26;;;;;;;4.63;1.40;;;6.70;99.90;;;;;;10303469;28;20105;-63
2023/01/26 21:47:26;;;;;;;6.05;1.35;;;6.70;99.90;;;;;;10301328;28;20049;-63
2023/01/26 22:03:05;;;;;;;4.63;1.05;;;6.70;99.90;;;;;;10305699;28;20303;-63
2023/01/26 22:08:07;;;;;;;2.60;1.00;;;6.70;99.90;;;;;;10300802;28;20738;-63
2023/01/26 22:13:07;;;;;;;3.45;1.10;;;6.90;99.90;;;;;;10306382;28;20034;-63
2023/01/26 22:18:08;;;;;;;2.75;1.10;;;6.70;99.90;;;;;;10316397;28;20362;-63
2023/01/26 22:23:10;;;;;;;3.10;1.00;;;6.70;99.90;;;;;;10313787;28;20066;-63
2023/01/26 22:28:11;;;;;;;2.55;1.15;;;6.70;99.90;;;;;;10315266;28;20042;-63
2023/01/26 22:33:11;;;;;;;2.63;1.20;;;7.00;99.90;;;;;;10312400;28;20023;-63
2023/01/26 22:38:12;;;;;;;3.10;1.27;;;6.70;99.90;;;;;;10306498;28;20034;-63
2023/01/26 22:43:13;;;;;;;2.47;0.82;;;6.70;99.90;;;;;;10313146;28;20434;-63
2023/01/26 22:48:14;;;;;;;3.35;0.93;;;6.70;99.90;;;;;;10314613;28;20033;-63
2023/01/26 22:53:15;;;;;;;3.97;1.15;;;6.70;99.90;;;;;;10313407;28;20058;-63
2023/01/26 22:58:16;;;;;;;2.05;1.15;;;6.70;99.90;;;;;;10317657;28;20794;-63
2023/01/26 23:03:17;;;;;;;2.58;1.23;;;6.70;99.90;;;;;;10320091;28;20069;-64
2023/01/26 23:08:17;;;;;;;3.78;1.02;;;7.90;99.90;;;;;;10319703;28;20030;-63
2023/01/26 23:13:18;;;;;;;1.83;1.10;;;6.80;99.90;;;;;;10321210;28;20030;-63
2023/01/26 23:18:18;;;;;;;3.42;1.25;;;6.70;99.90;;;;;;10324884;28;20104;-63
2023/01/26 23:23:21;;;;;;;2.42;1.02;;;6.80;99.90;;;;;;10321376;28;20033;-63
2023/01/26 23:28:23;;;;;;;3.97;1.13;;;6.80;99.90;;;;;;10318879;28;20030;-63
2023/01/26 23:33:26;;;;;;;4.80;1.35;;;6.80;99.90;;;;;;10318693;28;20029;-63
2023/01/26 23:38:27;;;;;;;2.17;0.90;;;7.00;99.90;;;;;;10327423;28;20081;-63
2023/01/26 23:43:28;;;;;;;2.03;1.20;;;6.80;99.90;;;;;;10321719;28;20058;-63
2023/01/26 23:48:29;;;;;;;2.20;1.00;;;6.80;99.90;;;;;;10319787;28;20114;-63
2023/01/26 23:53:30;;;;;;;5.22;1.30;;;6.80;99.90;;;;;;10321846;28;20105;-63
2023/01/26 23:58:31;;;;;;;1.92;1.20;;;6.80;99.90;;;;;;10314762;28;20063;-63
